Time;durP1;ratioP1;P1;durP2;ratioP2;P2;SDS_P1;SDS_P2;PMS_P1;PMS_P2;Temp;Humidity;BMP_temperature;BMP_pressure;BME280_temperature;BME280_humidity;BME280_pressure;Samples;Min_cycle;Max_cycle;Signal;HPM_P1;HPM_P2
2021/12/13 00:01:00;;;;;;;45.65;40.75;;;;;;;8.98;100.00;102485.66;4990857;28;20033;-69
2021/12/13 00:03:49;;;;;;;43.70;39.00;;;;;;;8.96;100.00;102495.25;4990168;28;20037;-69
2021/12/13 00:06:26;;;;;;;43.95;37.92;;;;;;;8.97;99.83;102485.75;4993036;28;20471;-69
2021/12/13 00:08:55;;;;;;;44.67;38.40;;;;;;;8.97;100.00;102483.97;4992934;28;20045;-69
2021/12/13 00:11:24;;;;;;;42.90;38.20;;;;;;;8.95;100.00;102485.81;4991055;28;20072;-69
2021/12/13 00:13:54;;;;;;;42.33;37.42;;;;;;;8.94;100.00;102478.94;4975411;28;20026;-71
2021/12/13 00:16:26;;;;;;;42.42;37.70;;;;;;;8.95;100.00;102480.66;4993142;28;20498;-71
2021/12/13 00:18:57;;;;;;;40.80;36.08;;;;;;;8.91;100.00;102486.88;4992677;28;20065;-69
2021/12/13 00:21:31;;;;;;;40.63;36.17;;;;;;;8.92;99.62;102480.78;4963364;28;20061;-69
2021/12/13 00:24:08;;;;;;;39.63;34.75;;;;;;;8.91;100.00;102484.28;4988892;28;20069;-69
2021/12/13 00:26:37;;;;;;;40.45;35.63;;;;;;;8.91;99.49;102488.63;4987568;28;20034;-69
2021/12/13 00:29:15;;;;;;;39.47;34.85;;;;;;;8.92;99.50;102493.72;4991535;28;20118;-69
2021/12/13 00:31:47;;;;;;;;;;;;;;;9.00;99.46;102483.84;4990444;28;20039;-69
2021/12/13 00:34:32;;;;;;;37.00;33.10;;;;;;;8.90;99.73;102498.13;4983047;28;20301;-69
2021/12/13 00:37:10;;;;;;;37.65;33.45;;;;;;;8.88;99.75;102499.94;4992638;28;20048;-69
2021/12/13 00:39:45;;;;;;;36.45;31.25;;;;;;;8.87;99.66;102497.44;4989786;28;20064;-69
2021/12/13 00:42:12;;;;;;;35.65;31.90;;;;;;;8.84;99.64;102503.59;4992194;28;20074;-69
2021/12/13 00:44:44;;;;;;;34.95;31.25;;;;;;;8.82;99.41;102508.00;4991652;28;20471;-70
2021/12/13 00:47:30;;;;;;;35.05;31.25;;;;;;;8.86;99.70;102506.13;4992092;28;20121;-70
2021/12/13 00:50:21;;;;;;;33.78;29.75;;;;;;;8.83;99.38;102512.28;4986023;28;20109;-71
2021/12/13 00:52:48;;;;;;;32.22;28.83;;;;;;;8.82;99.65;102500.22;4975628;28;20083;-70
2021/12/13 00:55:17;;;;;;;32.47;29.02;;;;;;;8.78;99.26;102496.13;4991183;28;20135;-71
2021/12/13 00:58:05;;;;;;;32.17;27.23;;;;;;;8.80;99.39;102507.25;4991645;28;20475;-70
2021/12/13 01:00:39;;;;;;;28.67;25.63;;;;;;;8.77;99.17;102503.06;4980605;28;20030;-70
2021/12/13 01:03:24;;;;;;;30.33;26.23;;;;;;;8.78;99.26;102498.72;4992006;28;20033;-69
2021/12/13 01:06:34;;;;;;;28.52;25.52;;;;;;;8.75;99.49;102502.28;4991895;28;20068;-69
2021/12/13 01:09:22;;;;;;;27.00;24.08;;;;;;;8.81;99.68;102511.50;4949349;28;20053;-69
2021/12/13 01:12:01;;;;;;;27.65;24.00;;;;;;;8.78;99.21;102506.50;4990735;28;20042;-69
2021/12/13 01:14:33;;;;;;;26.27;23.48;;;;;;;8.75;98.91;102519.56;4970560;28;20053;-69
2021/12/13 01:17:14;;;;;;;26.90;23.83;;;;;;;8.74;98.78;102517.88;4990846;28;20030;-70
2021/12/13 01:19:56;;;;;;;27.42;22.60;;;;;;;8.72;98.85;102514.53;4991848;28;20138;-69
2021/12/13 01:22:59;;;;;;;25.92;22.80;;;;;;;8.71;98.80;102523.19;4972522;28;20116;-69
2021/12/13 01:28:24;;;;;;;26.58;22.02;;;;;;;8.72;98.93;102514.53;4980061;28;20116;-69
2021/12/13 01:30:55;;;;;;;24.02;21.58;;;;;;;8.70;98.88;102516.34;4985786;28;20092;-70
2021/12/13 01:33:23;;;;;;;27.52;22.38;;;;;;;8.67;98.83;102516.50;4974755;28;20037;-69
2021/12/13 01:35:53;;;;;;;25.33;22.40;;;;;;;8.68;98.93;102523.34;4976267;28;20034;-69
2021/12/13 01:38:31;;;;;;;24.75;22.15;;;;;;;8.67;98.48;102526.84;4991191;28;20029;-69
2021/12/13 01:40:59;;;;;;;25.08;22.35;;;;;;;8.63;98.67;102530.47;4990886;28;20034;-69
2021/12/13 01:43:31;;;;;;;26.50;23.65;;;;;;;8.66;98.74;102530.31;4990078;28;20052;-69
2021/12/13 01:45:59;;;;;;;27.13;23.38;;;;;;;8.65;98.71;102534.66;4991521;28;20076;-69
2021/12/13 01:48:34;;;;;;;31.30;23.85;;;;;;;8.65;99.04;102533.81;4991051;28;20057;-70
2021/12/13 01:51:05;;;;;;;27.15;24.25;;;;;;;8.61;98.05;102542.66;4989252;28;20092;-70
2021/12/13 01:53:42;;;;;;;28.20;25.20;;;;;;;8.62;98.74;102539.16;4991185;28;20030;-69
2021/12/13 01:56:36;;;;;;;28.42;25.35;;;;;;;8.59;98.45;102539.28;4983373;28;20099;-70
2021/12/13 01:59:16;;;;;;;29.98;26.13;;;;;;;8.59;98.56;102541.84;4990590;28;20096;-71
2021/12/13 02:01:43;;;;;;;32.20;25.17;;;;;;;8.58;98.06;102543.59;4972330;28;20174;-69
2021/12/13 02:04:13;;;;;;;29.38;26.13;;;;;;;8.56;98.25;102539.44;4982635;28;20022;-69
2021/12/13 02:06:46;;;;;;;29.95;26.75;;;;;;;8.56;98.43;102545.44;4991156;28;20037;-70
2021/12/13 02:09:28;;;;;;;29.20;26.02;;;;;;;8.57;98.27;102552.28;4991092;28;20076;-70
2021/12/13 02:11:58;;;;;;;30.17;26.65;;;;;;;8.54;98.43;102551.56;4989524;28;20026;-70
2021/12/13 02:14:29;;;;;;;31.85;26.88;;;;;;;8.55;98.35;102553.28;4988846;28;20077;-69
2021/12/13 02:17:14;;;;;;;32.97;26.77;;;;;;;8.52;98.62;102555.06;4991022;28;20030;-69
2021/12/13 02:20:03;;;;;;;30.83;26.83;;;;;;;8.55;98.59;102548.09;4990989;28;20042;-70
2021/12/13 02:22:32;;;;;;;32.35;27.65;;;;;;;8.48;98.22;102543.19;4988346;28;20074;-69
2021/12/13 02:25:05;;;;;;;32.65;26.83;;;;;;;8.47;98.14;102535.50;4989035;28;20345;-69
2021/12/13 02:27:34;;;;;;;31.67;26.67;;;;;;;8.47;98.55;102541.50;4988869;28;20144;-69
2021/12/13 02:30:14;;;;;;;33.33;27.30;;;;;;;8.47;98.45;102536.34;4991129;28;20038;-69
2021/12/13 02:32:42;;;;;;;33.28;27.38;;;;;;;8.47;98.13;102536.34;4988645;28;20018;-69
2021/12/13 02:35:09;;;;;;;33.25;27.77;;;;;;;8.46;98.33;102534.66;4995170;28;20036;-69
2021/12/13 02:37:35;;;;;;;36.35;27.52;;;;;;;8.43;98.13;102529.66;4990747;28;20108;-68
2021/12/13 02:40:03;;;;;;;34.55;27.95;;;;;;;8.43;98.20;102529.66;4991031;28;20095;-69
2021/12/13 02:42:31;;;;;;;32.13;27.07;;;;;;;8.43;98.32;102534.81;4990500;28;20038;-68
2021/12/13 02:45:13;;;;;;;35.80;27.60;;;;;;;8.43;98.12;102540.00;4986272;28;20033;-69
2021/12/13 02:47:44;;;;;;;34.08;27.77;;;;;;;8.42;97.92;102530.53;4990092;28;20033;-69
2021/12/13 02:50:18;;;;;;;36.72;28.92;;;;;;;8.42;97.98;102548.63;4990771;28;20037;-70
2021/12/13 02:52:44;;;;;;;35.85;28.20;;;;;;;8.41;97.81;102544.38;4989290;28;20030;-69
2021/12/13 02:55:22;;;;;;;35.25;27.92;;;;;;;8.41;98.20;102541.78;4984144;28;20033;-69
2021/12/13 02:57:51;;;;;;;36.53;28.25;;;;;;;8.38;97.99;102539.34;4987560;28;20044;-68
2021/12/13 03:00:22;;;;;;;38.75;29.27;;;;;;;8.38;97.92;102541.09;4998579;28;20030;-69
2021/12/13 03:02:51;;;;;;;37.25;29.23;;;;;;;8.38;97.76;102541.94;4990730;28;20113;-69
2021/12/13 03:05:28;;;;;;;35.83;29.75;;;;;;;8.34;97.90;102540.34;4993070;28;20352;-69
2021/12/13 03:07:56;;;;;;;36.55;29.45;;;;;;;8.34;97.61;102530.00;4976476;28;20026;-68
2021/12/13 03:10:31;;;;;;;39.47;29.08;;;;;;;8.37;98.00;102531.63;4993738;28;20037;-69
2021/12/13 03:12:57;;;;;;;37.35;29.42;;;;;;;8.35;97.81;102531.69;4984968;28;20367;-68
2021/12/13 03:15:30;;;;;;;39.92;30.02;;;;;;;8.35;97.77;102529.09;4994281;28;20139;-69
2021/12/13 03:18:00;;;;;;;36.17;30.17;;;;;;;8.31;97.49;102535.31;4993928;28;20125;-69
2021/12/13 03:20:37;;;;;;;39.35;30.10;;;;;;;8.34;97.93;102539.53;4992871;28;20030;-69
2021/12/13 03:23:29;;;;;;;37.63;30.63;;;;;;;8.32;97.70;102542.19;4993713;28;20022;-70
2021/12/13 03:26:25;;;;;;;38.40;30.92;;;;;;;8.32;97.76;102551.69;4986696;28;20041;-68
2021/12/13 03:29:09;;;;;;;39.53;31.05;;;;;;;8.27;97.87;102538.97;4991897;28;20050;-69
2021/12/13 03:31:50;;;;;;;42.50;31.20;;;;;;;8.30;97.78;102549.16;4975190;28;20096;-68
2021/12/13 03:34:25;;;;;;;38.08;29.92;;;;;;;8.29;97.83;102547.47;5001953;28;20493;-69
2021/12/13 03:37:19;;;;;;;38.03;30.20;;;;;;;8.27;97.87;102538.13;4983318;28;20217;-69
2021/12/13 03:39:59;;;;;;;41.15;31.02;;;;;;;8.28;98.04;102544.97;4992078;28;20525;-69
2021/12/13 03:42:33;;;;;;;39.17;30.55;;;;;;;8.23;98.04;102542.56;4994939;28;20578;-69
2021/12/13 03:45:03;;;;;;;42.47;32.97;;;;;;;8.23;97.97;102547.75;4990358;28;20049;-69
2021/12/13 03:47:38;;;;;;;39.28;31.77;;;;;;;8.21;97.66;102539.22;4984499;28;20022;-68
2021/12/13 03:50:09;;;;;;;39.60;30.27;;;;;;;8.22;97.93;102546.06;4984525;28;20475;-69
2021/12/13 03:52:38;;;;;;;40.95;31.58;;;;;;;8.21;97.78;102541.81;4999453;28;20062;-71
2021/12/13 03:55:05;;;;;;;39.33;30.80;;;;;;;8.20;97.99;102553.03;4992646;28;20034;-70
2021/12/13 03:57:31;;;;;;;38.25;30.90;;;;;;;8.19;98.00;102543.59;4992953;28;20040;-69
2021/12/13 03:59:59;;;;;;;39.17;31.00;;;;;;;8.18;97.61;102549.69;4993048;28;20034;-70
2021/12/13 04:02:34;;;;;;;41.00;30.30;;;;;;;8.20;97.77;102553.03;4992668;28;20081;-70
2021/12/13 04:05:06;;;;;;;38.78;31.13;;;;;;;8.18;97.48;102544.53;4991802;28;20109;-69
2021/12/13 04:07:37;;;;;;;41.78;30.90;;;;;;;8.15;97.61;102539.50;4993136;28;20042;-70
2021/12/13 04:10:23;;;;;;;39.20;30.20;;;;;;;8.18;97.68;102541.94;4992030;28;20117;-69
2021/12/13 04:12:53;;;;;;;40.85;31.35;;;;;;;8.14;97.66;102537.81;4992825;28;20276;-70
2021/12/13 04:15:47;;;;;;;38.05;30.23;;;;;;;8.16;97.39;102547.19;4990676;28;20033;-68
2021/12/13 04:18:29;;;;;;;38.50;30.15;;;;;;;8.18;97.67;102550.53;4992440;28;20304;-69
2021/12/13 04:21:05;;;;;;;38.50;29.58;;;;;;;8.17;97.95;102553.19;4992514;28;20030;-70
2021/12/13 04:23:32;;;;;;;40.50;30.75;;;;;;;8.14;97.51;102554.19;4990491;28;20609;-70
2021/12/13 04:26:00;;;;;;;39.80;30.25;;;;;;;8.14;97.93;102553.31;4992474;28;20038;-69
2021/12/13 04:28:31;;;;;;;41.50;30.80;;;;;;;8.15;97.54;102552.44;4989606;28;20137;-68
2021/12/13 04:31:03;;;;;;;38.35;30.08;;;;;;;8.13;97.67;102551.63;4988233;28;20026;-68
2021/12/13 04:33:37;;;;;;;37.58;29.33;;;;;;;8.13;97.53;102556.81;4994506;28;20031;-69
2021/12/13 04:36:38;;;;;;;37.80;30.15;;;;;;;8.17;97.28;102558.34;4997406;28;20037;-69
2021/12/13 04:39:33;;;;;;;39.33;30.00;;;;;;;8.15;97.43;102560.19;4960467;28;20092;-69
2021/12/13 04:42:09;;;;;;;37.67;28.92;;;;;;;8.11;97.42;102550.88;4992449;28;20022;-69
2021/12/13 04:44:37;;;;;;;39.35;29.38;;;;;;;8.11;97.50;102551.72;4992237;28;20038;-69
2021/12/13 04:47:27;;;;;;;37.80;30.38;;;;;;;8.15;97.68;102547.25;5007173;23;20472;-70
2021/12/13 04:50:21;;;;;;;40.58;31.05;;;;;;;8.15;97.45;102550.69;4982213;28;20463;-70
2021/12/13 04:52:48;;;;;;;38.03;29.25;;;;;;;8.10;97.25;102551.78;4990015;28;20507;-70
2021/12/13 04:55:21;;;;;;;39.25;29.33;;;;;;;8.10;97.29;102559.53;4990482;28;20061;-70
2021/12/13 04:57:48;;;;;;;39.13;28.23;;;;;;;8.09;97.47;102550.13;4989361;28;20196;-70
2021/12/13 05:00:21;;;;;;;40.22;28.80;;;;;;;8.06;96.99;102545.06;4990240;28;20033;-70
2021/12/13 05:02:52;;;;;;;36.75;27.85;;;;;;;8.06;97.11;102542.47;4987736;28;20105;-69
2021/12/13 05:05:19;;;;;;;36.83;27.83;;;;;;;8.07;96.99;102546.72;4956049;28;20026;-68
2021/12/13 05:07:47;;;;;;;37.20;28.05;;;;;;;8.04;97.41;102552.06;4988494;28;20030;-70
2021/12/13 05:10:14;;;;;;;36.83;27.77;;;;;;;8.06;96.97;102551.06;4986783;28;20045;-69
2021/12/13 05:12:40;;;;;;;36.60;27.83;;;;;;;8.02;97.24;102553.84;4986496;28;20422;-69
2021/12/13 05:15:23;;;;;;;36.33;27.08;;;;;;;8.07;97.14;102551.91;4987614;28;20034;-69
2021/12/13 05:17:49;;;;;;;36.65;27.73;;;;;;;8.04;96.87;102562.38;4988123;28;20053;-70
2021/12/13 05:20:27;;;;;;;32.38;26.45;;;;;;;8.07;97.07;102551.91;4990076;28;20026;-69
2021/12/13 05:23:00;;;;;;;35.38;26.98;;;;;;;8.07;96.80;102557.06;4981390;28;20030;-68
2021/12/13 05:25:50;;;;;;;31.10;25.40;;;;;;;8.11;97.33;102554.28;4988550;28;20105;-69
2021/12/13 05:28:22;;;;;;;34.78;26.60;;;;;;;8.07;96.51;102562.25;4988573;28;20049;-68
2021/12/13 05:30:54;;;;;;;33.58;25.85;;;;;;;8.05;96.83;102553.72;4982222;28;20027;-69
2021/12/13 05:33:20;;;;;;;35.88;26.05;;;;;;;8.06;96.65;102550.22;4990014;28;20026;-69
2021/12/13 05:35:49;;;;;;;31.40;26.27;;;;;;;8.04;96.63;102552.06;4990080;28;20034;-69
2021/12/13 05:38:31;;;;;;;32.58;25.05;;;;;;;8.04;96.84;102562.38;4970868;28;20566;-70
2021/12/13 05:40:59;;;;;;;33.80;24.95;;;;;;;7.99;96.39;102560.84;4968730;28;20416;-69
2021/12/13 05:43:37;;;;;;;31.80;24.57;;;;;;;8.04;96.54;102565.81;4990837;28;20490;-68
2021/12/13 05:46:09;;;;;;;31.27;24.53;;;;;;;8.04;96.36;102562.38;4990853;28;20030;-69
2021/12/13 05:48:34;;;;;;;30.30;24.40;;;;;;;8.03;96.68;102551.22;5003897;28;20305;-69
2021/12/13 05:51:03;;;;;;;34.53;25.23;;;;;;;8.02;96.33;102553.84;5010030;28;20076;-69
2021/12/13 05:53:38;;;;;;;32.42;23.95;;;;;;;8.04;96.10;102560.66;4992129;28;20513;-68
2021/12/13 05:56:07;;;;;;;32.83;24.33;;;;;;;8.01;96.18;102557.34;5005627;28;20148;-68
2021/12/13 05:58:32;;;;;;;;;;;;;;;8.13;96.14;102562.81;5011220;28;20462;-69
2021/12/13 06:01:01;;;;;;;29.92;23.20;;;;;;;8.01;96.03;102565.94;5010215;28;19924;-69
2021/12/13 06:03:35;;;;;;;30.67;23.38;;;;;;;7.98;96.27;102558.31;5007750;28;20368;-69
2021/12/13 06:06:13;;;;;;;31.98;23.27;;;;;;;7.99;96.18;102560.84;4991143;28;20489;-69
2021/12/13 06:08:49;;;;;;;30.88;24.30;;;;;;;7.98;95.74;102561.75;5004864;28;20465;-70
2021/12/13 06:11:32;;;;;;;30.58;22.42;;;;;;;7.99;96.19;102560.84;5004124;28;20149;-69
2021/12/13 06:14:15;;;;;;;28.33;22.85;;;;;;;7.97;95.74;102572.13;4999786;28;20037;-69
2021/12/13 06:16:48;;;;;;;26.27;21.48;;;;;;;7.97;96.24;102570.41;5008601;28;20371;-69
2021/12/13 06:19:21;;;;;;;26.67;21.42;;;;;;;7.97;95.90;102572.13;5010800;28;20024;-69
2021/12/13 06:21:59;;;;;;;28.55;21.40;;;;;;;7.96;95.48;102571.28;5009099;28;20032;-69
2021/12/13 06:24:32;;;;;;;27.98;21.55;;;;;;;7.95;96.02;102561.84;4995667;28;20197;-69
2021/12/13 06:27:04;;;;;;;29.20;22.45;;;;;;;7.97;96.04;102567.81;4991181;28;20053;-68
2021/12/13 06:29:59;;;;;;;27.23;20.52;;;;;;;8.02;96.08;102571.94;5008743;28;20030;-69
2021/12/13 06:32:30;;;;;;;28.70;21.17;;;;;;;7.96;95.67;102576.44;4997205;28;20096;-69
2021/12/13 06:34:59;;;;;;;27.20;21.05;;;;;;;7.97;95.38;102573.00;5008922;28;20021;-69
2021/12/13 06:37:35;;;;;;;28.90;21.33;;;;;;;7.92;95.63;102574.94;5008561;28;20482;-68
2021/12/13 06:40:27;;;;;;;26.25;20.35;;;;;;;7.98;95.46;102590.16;4998618;28;20026;-69
2021/12/13 06:43:01;;;;;;;26.58;20.02;;;;;;;7.95;95.46;102595.44;5000050;28;20068;-69
2021/12/13 06:45:34;;;;;;;29.73;22.92;;;;;;;7.95;95.65;102590.28;5012548;28;20030;-69
2021/12/13 06:48:04;;;;;;;26.17;20.00;;;;;;;7.94;95.37;102588.59;5008978;28;20062;-69
2021/12/13 06:50:36;;;;;;;24.88;19.58;;;;;;;7.92;95.68;102584.44;5015059;28;20029;-68
2021/12/13 06:53:17;;;;;;;24.05;19.08;;;;;;;7.95;95.46;102579.94;5012161;28;20030;-70
2021/12/13 06:55:44;;;;;;;22.85;19.00;;;;;;;7.92;95.59;102590.44;5003786;28;20510;-69
2021/12/13 06:58:20;;;;;;;24.83;19.33;;;;;;;7.92;95.71;102590.44;4978148;28;20029;-69
2021/12/13 07:00:48;;;;;;;24.58;19.23;;;;;;;7.90;95.30;102591.38;4992289;28;20510;-69
2021/12/13 07:03:21;;;;;;;24.02;18.85;;;;;;;7.90;95.61;102602.56;5012561;28;20022;-69
2021/12/13 07:05:53;;;;;;;25.13;19.38;;;;;;;7.88;95.11;102604.38;5008683;28;20071;-68
2021/12/13 07:08:23;;;;;;;26.80;19.13;;;;;;;7.88;96.01;102599.19;5008381;28;20029;-70
2021/12/13 07:10:51;;;;;;;24.17;18.42;;;;;;;7.87;95.39;102600.09;5009491;28;20025;-69
2021/12/13 07:13:20;;;;;;;25.15;18.52;;;;;;;7.88;95.22;102606.94;5017368;28;20033;-65
2021/12/13 07:16:08;;;;;;;24.58;18.77;;;;;;;7.91;95.58;102609.41;5013110;28;20129;-65
2021/12/13 07:18:47;;;;;;;23.25;18.38;;;;;;;7.86;95.21;102611.34;5006979;28;20033;-64
2021/12/13 07:21:20;;;;;;;24.80;18.45;;;;;;;7.86;95.72;102608.78;5010208;28;20065;-66
2021/12/13 07:24:00;;;;;;;23.95;18.33;;;;;;;7.86;95.74;102611.34;4994405;28;20025;-64
2021/12/13 07:26:36;;;;;;;23.38;18.35;;;;;;;7.84;95.77;102613.13;5006650;28;20474;-64
2021/12/13 07:29:17;;;;;;;26.48;17.95;;;;;;;7.84;95.76;102623.47;5003407;28;20030;-64
2021/12/13 07:31:45;;;;;;;23.10;17.48;;;;;;;7.85;95.67;102619.97;5001309;28;20036;-64
2021/12/13 07:34:17;;;;;;;22.70;17.73;;;;;;;7.85;95.32;102619.97;5010558;28;20044;-64
2021/12/13 07:36:52;;;;;;;26.70;20.33;;;;;;;7.84;95.83;102618.31;5008027;28;20030;-65
2021/12/13 07:39:18;;;;;;;25.27;18.67;;;;;;;7.82;95.48;102620.13;5006648;28;20025;-65
2021/12/13 07:41:50;;;;;;;23.40;18.30;;;;;;;7.83;95.25;102626.97;5009544;28;20018;-65
2021/12/13 07:44:31;;;;;;;24.30;17.73;;;;;;;7.87;95.72;102623.34;5011265;28;20039;-65
2021/12/13 07:47:09;;;;;;;26.42;18.17;;;;;;;7.79;95.17;102625.41;5006610;28;20110;-66
2021/12/13 07:49:42;;;;;;;21.60;17.25;;;;;;;7.84;95.26;102638.13;5009310;28;20044;-64
2021/12/13 07:52:09;;;;;;;21.40;17.05;;;;;;;7.82;95.40;102638.22;5011031;28;20049;-64
2021/12/13 07:54:38;;;;;;;24.33;17.93;;;;;;;7.81;95.83;102635.69;4993449;28;20442;-65
2021/12/13 07:57:05;;;;;;;;;;;;;;;7.93;95.76;102643.78;5008603;28;20022;-64
2021/12/13 07:59:34;;;;;;;22.92;17.27;;;;;;;7.83;95.82;102637.28;5008189;28;20002;-66
2021/12/13 08:02:05;;;;;;;25.63;17.48;;;;;;;7.83;95.32;102642.47;4992021;28;20121;-64
2021/12/13 08:05:00;;;;;;;22.63;16.92;;;;;;;7.85;95.81;102643.22;4982130;28;20023;-65
2021/12/13 08:07:29;;;;;;;21.73;16.60;;;;;;;7.81;95.90;102639.13;5000229;28;20026;-65
2021/12/13 08:10:05;;;;;;;21.77;17.08;;;;;;;7.83;95.40;102642.47;5011293;28;20414;-64
2021/12/13 08:12:38;;;;;;;22.85;17.00;;;;;;;7.83;96.00;102641.63;5010976;28;20033;-64
2021/12/13 08:15:29;;;;;;;21.98;17.05;;;;;;;7.81;95.43;102633.94;5012445;28;20030;-66
2021/12/13 08:18:07;;;;;;;22.67;17.05;;;;;;;7.83;95.42;102632.13;5006643;28;20045;-64
2021/12/13 08:20:41;;;;;;;23.15;17.30;;;;;;;7.82;95.43;102645.13;5010730;28;20504;-65
2021/12/13 08:23:14;;;;;;;23.98;17.55;;;;;;;7.80;96.02;102642.59;5009699;28;20084;-65
2021/12/13 08:25:40;;;;;;;22.13;16.67;;;;;;;7.81;95.49;102639.13;5011889;28;20037;-65
2021/12/13 08:28:09;;;;;;;22.25;17.38;;;;;;;7.81;95.35;102631.38;5011240;28;20466;-65
2021/12/13 08:30:50;;;;;;;21.38;16.77;;;;;;;7.82;95.88;102640.78;5011271;28;20057;-65
2021/12/13 08:33:19;;;;;;;21.38;16.50;;;;;;;7.80;95.50;102637.44;5010059;28;20025;-65
2021/12/13 08:35:50;;;;;;;26.00;20.92;;;;;;;7.84;95.85;102644.13;5012199;28;20044;-65
2021/12/13 08:38:40;;;;;;;19.90;16.60;;;;;;;7.88;95.73;102640.53;5012072;28;20080;-65
2021/12/13 08:41:39;;;;;;;22.02;16.35;;;;;;;7.89;95.68;102634.47;5010672;28;20033;-65
2021/12/13 08:44:24;;;;;;;19.02;15.02;;;;;;;7.86;95.51;102641.50;4994851;28;20623;-65
2021/12/13 08:46:54;;;;;;;20.27;15.55;;;;;;;7.84;95.34;102651.88;5002325;28;20034;-64
2021/12/13 08:49:31;;;;;;;18.92;15.02;;;;;;;7.82;95.27;102648.53;4997596;28;20048;-64
2021/12/13 08:52:07;;;;;;;17.42;14.80;;;;;;;7.85;95.43;102650.97;5009230;28;20385;-64
2021/12/13 08:54:43;;;;;;;17.92;14.95;;;;;;;7.86;95.54;102652.69;5006914;28;20398;-64
2021/12/13 08:57:13;;;;;;;18.45;14.77;;;;;;;7.83;95.46;102652.78;4989342;28;20053;-65
2021/12/13 08:59:52;;;;;;;19.50;14.90;;;;;;;7.88;95.00;102650.03;5007562;28;20382;-66
2021/12/13 09:02:19;;;;;;;17.30;13.77;;;;;;;7.84;95.42;102640.72;5008513;28;20037;-65
2021/12/13 09:05:17;;;;;;;16.88;13.65;;;;;;;7.87;95.00;102649.19;4988521;28;20588;-66
2021/12/13 09:08:04;;;;;;;17.55;13.75;;;;;;;7.89;94.77;102642.22;4977843;28;20034;-65
2021/12/13 09:10:44;;;;;;;17.65;13.52;;;;;;;7.88;94.94;102650.88;4982450;28;20030;-65
2021/12/13 09:13:11;;;;;;;17.48;13.73;;;;;;;7.86;94.84;102663.03;4986529;28;20125;-65
2021/12/13 09:15:37;;;;;;;16.33;12.93;;;;;;;7.87;95.05;102658.69;4988817;28;20018;-64
2021/12/13 09:18:05;;;;;;;19.08;13.10;;;;;;;7.85;94.68;102666.47;4985101;28;20061;-66
2021/12/13 09:20:47;;;;;;;18.10;13.80;;;;;;;7.87;94.89;102659.53;4986678;28;20026;-65
2021/12/13 09:23:30;;;;;;;16.52;13.25;;;;;;;7.87;95.10;102658.69;4989015;28;20061;-65
2021/12/13 09:26:09;;;;;;;16.98;12.95;;;;;;;7.89;94.78;102667.22;4986812;28;20025;-66
2021/12/13 09:28:43;;;;;;;16.13;12.60;;;;;;;7.87;94.83;102664.69;4984792;28;20034;-65
2021/12/13 09:31:21;;;;;;;16.48;12.90;;;;;;;7.89;94.61;102673.22;4979300;28;20062;-65
2021/12/13 09:34:16;;;;;;;15.18;12.70;;;;;;;7.93;94.75;102679.94;4984704;28;20030;-65
2021/12/13 09:36:45;;;;;;;16.15;13.10;;;;;;;7.90;94.24;102690.38;4978067;28;20090;-65
2021/12/13 09:39:20;;;;;;;15.02;12.27;;;;;;;7.90;94.56;102694.72;4981834;28;20143;-64
2021/12/13 09:41:53;;;;;;;15.20;12.15;;;;;;;7.90;94.49;102700.72;4984186;28;20026;-64
2021/12/13 09:44:31;;;;;;;15.50;13.30;;;;;;;7.92;94.30;102711.84;4964818;28;20129;-65
2021/12/13 09:47:04;;;;;;;16.17;12.90;;;;;;;7.91;94.20;102711.91;4983214;28;20128;-65
2021/12/13 09:49:47;;;;;;;17.55;12.57;;;;;;;7.94;94.32;102717.78;4987102;28;20030;-65
2021/12/13 09:52:21;;;;;;;18.60;12.93;;;;;;;7.94;93.84;102727.28;4990910;28;20038;-65
2021/12/13 09:54:55;;;;;;;16.50;12.68;;;;;;;7.93;94.04;102726.44;4990716;28;20418;-65
2021/12/13 09:57:26;;;;;;;15.15;12.57;;;;;;;7.94;94.53;102725.53;4963631;28;20069;-64
2021/12/13 09:59:54;;;;;;;15.15;11.95;;;;;;;7.95;94.11;102732.38;4990716;28;20027;-65
2021/12/13 10:02:25;;;;;;;16.48;13.27;;;;;;;7.92;94.49;102727.34;4971881;28;20454;-64
2021/12/13 10:04:52;;;;;;;17.65;13.48;;;;;;;7.95;94.29;102727.22;4989075;28;20049;-65
2021/12/13 10:07:48;;;;;;;20.98;16.10;;;;;;;8.01;94.23;102735.63;4983108;28;20070;-65
2021/12/13 10:10:21;;;;;;;16.55;13.13;;;;;;;7.98;94.23;102729.69;4961721;28;20046;-65
2021/12/13 10:12:55;;;;;;;16.02;12.63;;;;;;;7.98;93.85;102729.69;4990722;28;20092;-66
2021/12/13 10:15:37;;;;;;;15.57;12.23;;;;;;;8.01;93.71;102722.72;4993592;28;20109;-64
2021/12/13 10:18:08;;;;;;;15.35;12.63;;;;;;;8.01;94.00;102720.13;4984827;28;20474;-65
2021/12/13 10:20:45;;;;;;;14.60;11.95;;;;;;;8.02;93.76;102708.88;4989580;28;20049;-64
2021/12/13 10:23:16;;;;;;;16.83;12.95;;;;;;;7.99;93.73;102715.88;4988525;28;20030;-64
2021/12/13 10:25:45;;;;;;;15.10;12.27;;;;;;;8.01;94.03;102710.63;4990827;28;20034;-64
2021/12/13 10:28:16;;;;;;;16.27;13.00;;;;;;;8.03;93.90;102710.56;4987753;28;20121;-64
2021/12/13 10:30:46;;;;;;;14.93;13.10;;;;;;;8.03;93.69;102705.38;4990184;28;20026;-66
2021/12/13 10:33:12;;;;;;;16.45;13.55;;;;;;;8.04;93.42;102707.09;4986268;28;20031;-64
2021/12/13 10:35:39;;;;;;;16.90;13.65;;;;;;;8.05;93.41;102701.84;4975845;28;20514;-64
2021/12/13 10:38:13;;;;;;;16.77;14.45;;;;;;;8.04;93.58;102701.94;4985307;28;20347;-66
2021/12/13 10:40:52;;;;;;;17.60;14.98;;;;;;;8.05;93.34;102714.78;4984285;28;20018;-65
2021/12/13 10:43:25;;;;;;;17.05;14.57;;;;;;;8.05;93.23;102713.94;4986040;28;20046;-65
2021/12/13 10:46:07;;;;;;;17.70;14.13;;;;;;;8.07;93.58;102710.38;4985229;28;20062;-65
2021/12/13 10:48:35;;;;;;;19.65;14.75;;;;;;;8.06;93.40;102713.03;4988464;28;20046;-65
2021/12/13 10:51:08;;;;;;;18.63;15.20;;;;;;;8.06;93.54;102718.19;4992480;28;20042;-64
2021/12/13 10:53:36;;;;;;;17.27;14.43;;;;;;;8.07;93.69;102706.94;4994116;28;20514;-65
2021/12/13 10:56:07;;;;;;;17.35;14.75;;;;;;;8.06;93.56;102707.88;4993456;28;20046;-65
2021/12/13 10:58:39;;;;;;;15.77;13.80;;;;;;;8.08;93.22;102714.63;4985366;28;20061;-65
2021/12/13 11:01:24;;;;;;;15.80;14.10;;;;;;;8.09;93.27;102706.00;4994130;28;20018;-65
2021/12/13 11:03:51;;;;;;;15.95;14.25;;;;;;;8.07;93.14;102700.03;4990191;28;20073;-65
2021/12/13 11:06:19;;;;;;;16.67;14.07;;;;;;;8.07;93.36;102699.19;4993844;28;20034;-65
2021/12/13 11:08:45;;;;;;;15.60;13.50;;;;;;;8.09;93.10;102700.84;4992812;28;20097;-64
2021/12/13 11:11:21;;;;;;;15.85;13.52;;;;;;;8.10;93.55;102696.50;4990252;28;20058;-65
2021/12/13 11:13:50;;;;;;;17.17;13.80;;;;;;;8.05;93.44;102688.94;4985049;28;20074;-65
2021/12/13 11:16:21;;;;;;;15.02;13.43;;;;;;;8.12;93.25;102694.69;4985801;28;20034;-66
2021/12/13 11:18:47;;;;;;;17.63;14.07;;;;;;;8.09;93.01;102693.09;4989032;28;20336;-65
2021/12/13 11:21:25;;;;;;;15.45;13.02;;;;;;;8.11;92.90;102687.84;4993507;28;20026;-66
2021/12/13 11:23:51;;;;;;;16.98;13.45;;;;;;;8.12;92.82;102689.53;4992320;28;20556;-65
2021/12/13 11:26:22;;;;;;;14.57;12.40;;;;;;;8.10;92.90;102686.16;4992052;28;20065;-64
2021/12/13 11:28:48;;;;;;;15.32;11.82;;;;;;;8.13;93.27;102696.38;4993988;28;20026;-64
2021/12/13 11:31:28;;;;;;;15.20;12.68;;;;;;;8.12;92.82;102699.84;4976308;28;20081;-64
2021/12/13 11:34:03;;;;;;;15.82;12.38;;;;;;;8.14;93.01;102692.88;4992074;28;20060;-64
2021/12/13 11:36:58;;;;;;;14.30;12.20;;;;;;;8.19;92.59;102690.94;4991549;28;20041;-65
2021/12/13 11:39:50;;;;;;;14.52;12.68;;;;;;;8.18;92.92;102690.09;4963826;28;20482;-65
2021/12/13 11:42:43;;;;;;;15.27;11.88;;;;;;;8.18;92.78;102686.69;4988832;28;20034;-65
2021/12/13 11:45:08;;;;;;;14.00;12.50;;;;;;;8.17;92.45;102677.25;4993438;28;20029;-64
2021/12/13 11:47:46;;;;;;;14.55;12.20;;;;;;;8.14;92.42;102685.13;4993346;28;20071;-66
2021/12/13 11:50:49;;;;;;;14.13;12.13;;;;;;;8.20;92.82;102687.44;4992936;28;20061;-65
2021/12/13 11:53:30;;;;;;;13.73;11.63;;;;;;;8.16;92.64;102691.09;4992996;28;20030;-64
2021/12/13 11:56:25;;;;;;;14.43;11.35;;;;;;;8.19;92.67;102684.03;4966358;28;20030;-64